Time;durP1;ratioP1;P1;durP2;ratioP2;P2;SDS_P1;SDS_P2;PMS_P1;PMS_P2;Temp;Humidity;BMP_temperature;BMP_pressure;BME280_temperature;BME280_humidity;BME280_pressure;Samples;Min_cycle;Max_cycle;Signal;HPM_P1;HPM_P2
2021/01/02 00:00:46;;;;;;;64.38;32.58;;;3.00;96.60;;;;;;5051853;28;20036;-67
2021/01/02 00:03:24;;;;;;;64.45;32.35;;;3.00;96.50;;;;;;5047768;28;20463;-67
2021/01/02 00:06:01;;;;;;;60.35;31.52;;;3.00;96.60;;;;;;5049939;28;20710;-67
2021/01/02 00:08:29;;;;;;;63.97;31.08;;;3.00;96.60;;;;;;5053096;28;20028;-67
2021/01/02 00:11:12;;;;;;;68.38;31.63;;;3.00;96.60;;;;;;5050130;28;20028;-67
2021/01/02 00:14:15;;;;;;;63.65;31.80;;;3.00;96.60;;;;;;5049131;28;20029;-67
2021/01/02 00:16:44;;;;;;;65.43;32.55;;;3.00;96.50;;;;;;5049860;28;20361;-68
2021/01/02 00:19:21;;;;;;;62.17;31.33;;;3.00;96.50;;;;;;5047206;28;20278;-68
2021/01/02 00:22:02;;;;;;;60.35;31.23;;;3.00;96.40;;;;;;5048885;28;20106;-67
2021/01/02 00:24:54;;;;;;;65.05;30.27;;;3.00;96.40;;;;;;5049352;28;20214;-67
2021/01/02 00:27:27;;;;;;;55.60;28.85;;;3.00;96.40;;;;;;5050100;28;20032;-66
2021/01/02 00:29:58;;;;;;;58.85;29.75;;;3.00;96.40;;;;;;5047001;28;20024;-66
2021/01/02 00:32:51;;;;;;;60.63;29.85;;;3.00;96.30;;;;;;5025193;28;20489;-66
2021/01/02 00:35:21;;;;;;;58.83;29.80;;;2.90;96.30;;;;;;5028918;28;20483;-66
2021/01/02 00:37:59;;;;;;;61.75;30.40;;;3.00;96.40;;;;;;5048341;28;20517;-67
2021/01/02 00:40:25;;;;;;;60.97;30.15;;;3.00;96.30;;;;;;5049168;28;20032;-67
2021/01/02 00:42:51;;;;;;;62.92;31.55;;;2.90;96.30;;;;;;5049568;28;20508;-66
2021/01/02 00:45:31;;;;;;;58.67;31.25;;;3.00;96.30;;;;;;5048634;28;20115;-67
2021/01/02 00:47:57;;;;;;;56.33;30.73;;;3.00;96.30;;;;;;5030227;28;20040;-67
2021/01/02 00:50:25;;;;;;;57.05;29.35;;;3.00;96.20;;;;;;5048262;28;20370;-67
2021/01/02 00:52:50;;;;;;;58.65;29.90;;;2.90;96.20;;;;;;5044812;28;20028;-66
2021/01/02 00:55:25;;;;;;;54.97;28.85;;;3.00;96.30;;;;;;5047381;28;20039;-67
2021/01/02 00:57:57;;;;;;;55.67;29.10;;;2.90;96.30;;;;;;5047993;28;20040;-66
2021/01/02 01:00:27;;;;;;;56.67;28.85;;;2.90;96.30;;;;;;5048070;28;20020;-68
2021/01/02 01:03:30;;;;;;;53.80;29.20;;;2.90;96.30;;;;;;5048984;28;20017;-66
2021/01/02 01:05:56;;;;;;;60.85;30.30;;;2.90;96.30;;;;;;5048771;28;20032;-67
2021/01/02 01:08:23;;;;;;;58.67;30.05;;;2.90;96.30;;;;;;5050530;28;20082;-67
2021/01/02 01:10:49;;;;;;;61.78;30.73;;;2.80;96.40;;;;;;5045743;28;20078;-67
2021/01/02 01:13:19;;;;;;;63.50;30.05;;;2.80;96.40;;;;;;5046797;28;20230;-67
2021/01/02 01:15:46;;;;;;;59.40;30.70;;;2.80;96.40;;;;;;5047929;28;20128;-67
2021/01/02 01:18:18;;;;;;;54.67;29.85;;;2.80;96.40;;;;;;5047599;28;20597;-67
2021/01/02 01:20:59;;;;;;;62.55;32.47;;;2.80;96.50;;;;;;5047681;28;20032;-67
2021/01/02 01:23:47;;;;;;;59.97;31.40;;;2.70;96.50;;;;;;5047768;28;20368;-67
2021/01/02 01:26:34;;;;;;;63.03;31.90;;;2.70;96.70;;;;;;5045014;28;20033;-67
2021/01/02 01:29:02;;;;;;;57.47;31.40;;;2.80;96.60;;;;;;5047094;28;20032;-67
2021/01/02 01:31:43;;;;;;;63.55;31.63;;;2.80;96.60;;;;;;5046558;28;20044;-66
2021/01/02 01:34:18;;;;;;;63.28;31.23;;;2.80;96.60;;;;;;5043848;28;20090;-66
2021/01/02 01:36:47;;;;;;;63.55;32.20;;;2.80;96.60;;;;;;5048316;28;20115;-67
2021/01/02 01:39:13;;;;;;;67.82;31.58;;;2.90;96.60;;;;;;5048286;28;20116;-67
2021/01/02 01:41:42;;;;;;;58.58;30.00;;;2.90;96.60;;;;;;5048122;28;20025;-68
2021/01/02 01:44:12;;;;;;;61.47;31.75;;;2.90;96.60;;;;;;5029664;28;20824;-67
2021/01/02 01:46:50;;;;;;;49.50;24.90;;;2.90;96.50;;;;;;5047087;28;20028;-67
2021/01/02 01:49:45;;;;;;;58.33;29.75;;;2.90;96.50;;;;;;5062609;28;20029;-67
2021/01/02 01:52:25;;;;;;;57.97;31.02;;;2.80;96.50;;;;;;5060941;28;20601;-67
2021/01/02 01:55:07;;;;;;;63.28;29.92;;;2.90;96.50;;;;;;5058685;28;20429;-67
2021/01/02 01:57:41;;;;;;;55.35;30.42;;;2.90;96.50;;;;;;5062918;28;20058;-67
2021/01/02 02:00:17;;;;;;;55.13;31.20;;;2.80;96.60;;;;;;5067573;28;20082;-67
2021/01/02 02:02:46;;;;;;;59.03;31.40;;;2.80;96.60;;;;;;5046516;28;20024;-67
2021/01/02 02:05:12;;;;;;;59.13;30.30;;;2.80;96.60;;;;;;5046598;28;20021;-67
2021/01/02 02:07:53;;;;;;;63.65;31.08;;;2.70;96.60;;;;;;5068852;28;20059;-67
2021/01/02 02:10:30;;;;;;;57.45;29.60;;;2.60;96.70;;;;;;5079647;28;20498;-67
2021/01/02 02:13:06;;;;;;;67.22;32.33;;;2.50;96.80;;;;;;5059154;28;20090;-67
2021/01/02 02:15:32;;;;;;;65.70;32.00;;;2.60;97.00;;;;;;5064001;28;20486;-67
2021/01/02 02:18:07;;;;;;;69.93;32.72;;;2.60;97.10;;;;;;5076981;28;20028;-67
2021/01/02 02:20:34;;;;;;;72.05;32.65;;;2.60;97.10;;;;;;5049578;28;20029;-67
2021/01/02 02:23:03;;;;;;;67.95;32.35;;;2.60;97.00;;;;;;5042677;28;20111;-67
2021/01/02 02:25:49;;;;;;;74.10;34.45;;;2.60;97.10;;;;;;5050760;28;20137;-67
2021/01/02 02:28:34;;;;;;;74.15;33.30;;;2.60;97.10;;;;;;5069790;28;20081;-67
2021/01/02 02:31:07;;;;;;;73.25;33.45;;;2.60;97.10;;;;;;5036277;28;20055;-66
2021/01/02 02:33:34;;;;;;;66.15;33.28;;;2.60;97.10;;;;;;5051611;28;20020;-68
2021/01/02 02:36:02;;;;;;;65.70;33.13;;;2.60;97.20;;;;;;5069347;28;20080;-66
2021/01/02 02:38:33;;;;;;;73.50;33.75;;;2.70;97.10;;;;;;5066265;28;20413;-67
2021/01/02 02:40:59;;;;;;;69.95;33.72;;;2.70;97.10;;;;;;5053064;28;20399;-67
2021/01/02 02:43:25;;;;;;;67.70;32.75;;;2.70;97.10;;;;;;5067367;28;20107;-67
2021/01/02 02:45:55;;;;;;;68.40;31.67;;;2.70;97.10;;;;;;5069107;28;20024;-67
2021/01/02 02:48:24;;;;;;;67.77;32.23;;;2.80;97.10;;;;;;5070300;28;20206;-67
2021/01/02 02:50:53;;;;;;;64.78;31.02;;;2.80;97.00;;;;;;5066573;28;20136;-66
2021/01/02 02:53:18;;;;;;;62.97;30.15;;;2.80;97.00;;;;;;5068115;28;20069;-66
2021/01/02 02:55:45;;;;;;;65.13;30.98;;;2.70;97.00;;;;;;5069214;28;20025;-66
2021/01/02 02:58:11;;;;;;;62.53;32.08;;;2.80;97.00;;;;;;5065946;28;20012;-66
2021/01/02 03:00:38;;;;;;;56.15;29.77;;;2.80;96.90;;;;;;5034754;28;20063;-66
2021/01/02 03:03:07;;;;;;;70.03;32.00;;;2.80;96.80;;;;;;5052781;28;20081;-66
2021/01/02 03:05:34;;;;;;;60.80;30.80;;;2.80;96.80;;;;;;5068021;28;20039;-65
2021/01/02 03:08:00;;;;;;;51.47;28.58;;;2.90;96.80;;;;;;5065093;28;20024;-66
2021/01/02 03:10:26;;;;;;;62.63;30.95;;;2.80;96.80;;;;;;5067149;28;20373;-66
2021/01/02 03:12:53;;;;;;;56.53;29.75;;;2.90;96.80;;;;;;5064464;28;20043;-66
2021/01/02 03:15:26;;;;;;;58.40;29.48;;;2.90;96.70;;;;;;5068713;28;20028;-66
2021/01/02 03:17:53;;;;;;;59.75;29.63;;;2.90;96.70;;;;;;5073320;28;20032;-66
2021/01/02 03:20:20;;;;;;;52.97;28.08;;;2.90;96.70;;;;;;5068735;28;20021;-66
2021/01/02 03:22:47;;;;;;;58.80;29.52;;;2.90;96.70;;;;;;5053008;28;20141;-67
2021/01/02 03:25:14;;;;;;;54.78;27.77;;;2.90;96.70;;;;;;5068265;28;20039;-67
2021/01/02 03:27:40;;;;;;;54.53;28.05;;;2.90;96.70;;;;;;5063332;28;20119;-66
2021/01/02 03:30:08;;;;;;;54.72;28.15;;;3.00;96.70;;;;;;5066565;28;20081;-66
2021/01/02 03:32:36;;;;;;;57.72;28.50;;;2.90;96.60;;;;;;5070281;28;20111;-66
2021/01/02 03:35:06;;;;;;;51.28;27.58;;;2.90;96.60;;;;;;5068527;28;20436;-67
2021/01/02 03:37:36;;;;;;;58.67;28.60;;;3.00;96.60;;;;;;5069712;28;20032;-66
2021/01/02 03:40:04;;;;;;;49.78;27.73;;;3.00;96.60;;;;;;5066464;28;20124;-66
2021/01/02 03:42:30;;;;;;;54.08;26.15;;;3.00;96.50;;;;;;5066505;28;20017;-65
2021/01/02 03:44:55;;;;;;;46.97;25.77;;;3.00;96.40;;;;;;5062503;28;20245;-67
2021/01/02 03:47:21;;;;;;;47.55;25.98;;;3.00;96.40;;;;;;5068671;28;20063;-66
2021/01/02 03:49:46;;;;;;;50.53;26.95;;;3.00;96.30;;;;;;5067312;28;20032;-67
2021/01/02 03:52:12;;;;;;;47.47;26.00;;;3.00;96.30;;;;;;5067558;28;20020;-66
2021/01/02 03:54:38;;;;;;;44.85;24.80;;;3.00;96.10;;;;;;5063239;28;20034;-66
2021/01/02 03:57:04;;;;;;;43.03;25.27;;;3.10;96.10;;;;;;5065477;28;20024;-67
2021/01/02 03:59:30;;;;;;;47.05;25.35;;;3.00;96.10;;;;;;5080632;28;20043;-67
2021/01/02 04:01:57;;;;;;;47.05;25.05;;;3.00;96.10;;;;;;5070692;28;20035;-66
2021/01/02 04:04:24;;;;;;;43.10;24.75;;;3.10;96.00;;;;;;5068580;28;20400;-66
2021/01/02 04:06:53;;;;;;;46.95;24.77;;;3.00;96.00;;;;;;5048797;28;20034;-67
2021/01/02 04:09:20;;;;;;;45.83;26.00;;;3.00;96.00;;;;;;5080546;28;20116;-67
2021/01/02 04:11:46;;;;;;;44.53;26.20;;;3.00;95.90;;;;;;5059782;28;20098;-66
2021/01/02 04:14:13;;;;;;;51.42;26.02;;;3.00;95.80;;;;;;5071159;28;20049;-66
2021/01/02 04:16:40;;;;;;;46.42;25.48;;;3.00;95.90;;;;;;5066762;28;20048;-66
2021/01/02 04:19:07;;;;;;;45.45;25.45;;;3.00;95.90;;;;;;5068359;28;20025;-66
2021/01/02 04:21:32;;;;;;;48.92;26.25;;;3.00;95.80;;;;;;5066122;28;20073;-66
2021/01/02 04:23:58;;;;;;;45.40;25.10;;;3.00;95.80;;;;;;5066122;28;20073;-66
2021/01/02 04:26:25;;;;;;;46.33;25.85;;;3.00;95.80;;;;;;5066756;28;20064;-67
2021/01/02 04:28:52;;;;;;;40.92;23.38;;;3.00;95.90;;;;;;5066985;28;20052;-66
2021/01/02 04:31:18;;;;;;;45.03;25.20;;;3.00;95.80;;;;;;5062189;28;20036;-66
2021/01/02 04:33:44;;;;;;;47.15;24.80;;;3.00;95.70;;;;;;5072696;28;20124;-66
2021/01/02 04:36:14;;;;;;;47.65;26.05;;;3.00;95.70;;;;;;5066247;28;20576;-66
2021/01/02 04:38:39;;;;;;;52.90;26.08;;;3.00;95.70;;;;;;5074337;28;20035;-66
2021/01/02 04:41:05;;;;;;;45.53;25.58;;;3.00;95.80;;;;;;5067882;28;20039;-66
2021/01/02 04:43:31;;;;;;;47.70;25.70;;;3.00;95.70;;;;;;5052261;28;20082;-66
2021/01/02 04:45:58;;;;;;;43.90;25.23;;;3.00;95.70;;;;;;5066575;28;20048;-66
2021/01/02 04:48:24;;;;;;;47.08;24.98;;;3.00;95.70;;;;;;5053048;28;20039;-66
2021/01/02 04:50:49;;;;;;;44.80;24.67;;;3.00;95.70;;;;;;5063402;28;20032;-67
2021/01/02 04:53:15;;;;;;;47.38;26.08;;;2.90;95.70;;;;;;5069128;28;20062;-66
2021/01/02 04:55:45;;;;;;;46.10;25.10;;;3.00;95.60;;;;;;5069851;28;20127;-67
2021/01/02 04:58:14;;;;;;;47.63;26.42;;;3.00;95.60;;;;;;5072578;28;20032;-66
2021/01/02 05:00:41;;;;;;;42.58;25.42;;;3.00;95.60;;;;;;5065571;28;20359;-66
2021/01/02 05:03:08;;;;;;;49.92;25.60;;;3.00;95.60;;;;;;5071980;28;20077;-66
2021/01/02 05:05:35;;;;;;;47.45;26.80;;;3.00;95.70;;;;;;5070072;28;20036;-67
2021/01/02 05:08:02;;;;;;;49.53;25.90;;;3.00;95.70;;;;;;5059834;28;20036;-67
2021/01/02 05:10:27;;;;;;;45.38;24.50;;;3.00;95.70;;;;;;5062775;28;20089;-67
2021/01/02 05:13:12;;;;;;;39.95;23.90;;;2.90;95.70;;;;;;5068161;28;20051;-67
2021/01/02 05:15:38;;;;;;;42.47;25.20;;;2.90;95.70;;;;;;5065130;28;20173;-66
2021/01/02 05:18:04;;;;;;;43.28;25.10;;;3.00;95.60;;;;;;5067159;28;20494;-67
2021/01/02 05:20:30;;;;;;;47.55;26.10;;;3.00;95.50;;;;;;5063974;28;20020;-66
2021/01/02 05:23:09;;;;;;;46.60;25.15;;;2.90;95.50;;;;;;5065125;28;20032;-66
2021/01/02 05:25:35;;;;;;;46.65;25.27;;;3.00;95.60;;;;;;5066961;28;20075;-67
2021/01/02 05:28:01;;;;;;;49.70;27.13;;;2.90;95.50;;;;;;5046255;28;20278;-66
2021/01/02 05:30:32;;;;;;;48.50;25.33;;;2.90;95.50;;;;;;5064925;28;20376;-66
2021/01/02 05:33:00;;;;;;;49.13;26.58;;;2.90;95.60;;;;;;5057588;28;20032;-66
2021/01/02 05:35:28;;;;;;;46.50;25.65;;;2.90;95.60;;;;;;5058406;28;20456;-66
2021/01/02 05:37:54;;;;;;;43.20;25.20;;;2.90;95.60;;;;;;5049924;28;20348;-66
2021/01/02 05:40:40;;;;;;;49.42;26.60;;;2.90;95.60;;;;;;5069798;28;20039;-66
2021/01/02 05:43:06;;;;;;;48.97;25.60;;;2.90;95.60;;;;;;5049650;28;20016;-66
2021/01/02 05:45:32;;;;;;;46.30;25.33;;;2.90;95.70;;;;;;5067581;28;20032;-66
2021/01/02 05:48:10;;;;;;;47.28;26.85;;;2.90;95.70;;;;;;5037324;28;20035;-66
2021/01/02 05:50:41;;;;;;;48.38;26.92;;;2.90;95.70;;;;;;5061863;28;20032;-66
2021/01/02 05:53:18;;;;;;;49.72;26.77;;;2.90;95.70;;;;;;5056744;28;20024;-66
2021/01/02 05:55:44;;;;;;;46.45;26.40;;;2.90;95.80;;;;;;5063713;28;20028;-67
2021/01/02 05:58:17;;;;;;;44.63;25.60;;;2.90;95.80;;;;;;5069819;28;20422;-66
2021/01/02 06:00:45;;;;;;;50.35;26.45;;;2.90;95.80;;;;;;5064858;28;20095;-66
2021/01/02 06:03:25;;;;;;;50.55;27.05;;;2.90;95.90;;;;;;5069029;28;20024;-67
2021/01/02 06:05:55;;;;;;;49.28;27.08;;;2.90;95.90;;;;;;5064814;28;20111;-67
2021/01/02 06:08:34;;;;;;;50.60;28.48;;;2.90;95.80;;;;;;5067377;28;20055;-66
2021/01/02 06:11:02;;;;;;;48.42;26.30;;;2.90;95.80;;;;;;5064579;28;20101;-65
2021/01/02 06:13:30;;;;;;;48.38;26.40;;;2.90;95.80;;;;;;5054868;28;20397;-67
2021/01/02 06:15:58;;;;;;;51.72;26.55;;;2.80;95.90;;;;;;5070955;28;20029;-67
2021/01/02 06:18:23;;;;;;;53.10;27.75;;;2.90;95.90;;;;;;5065050;28;20392;-67
2021/01/02 06:20:49;;;;;;;50.55;26.90;;;2.90;95.80;;;;;;5057968;28;20098;-67
2021/01/02 06:23:18;;;;;;;52.83;27.95;;;2.80;95.90;;;;;;5051363;28;20086;-67
2021/01/02 06:25:47;;;;;;;51.47;27.73;;;2.80;95.90;;;;;;5046482;28;20060;-66
2021/01/02 06:28:15;;;;;;;50.22;29.02;;;2.80;95.90;;;;;;5068219;28;20089;-67
2021/01/02 06:30:41;;;;;;;54.67;28.13;;;2.90;96.00;;;;;;5065573;28;20068;-66
2021/01/02 06:33:12;;;;;;;52.10;27.75;;;2.80;95.90;;;;;;5062412;28;20455;-66
2021/01/02 06:35:38;;;;;;;53.70;28.00;;;2.80;95.90;;;;;;5061337;28;20115;-66
2021/01/02 06:38:05;;;;;;;51.15;27.85;;;2.80;96.00;;;;;;5048448;28;20052;-67
2021/01/02 06:40:36;;;;;;;51.97;28.38;;;2.80;96.00;;;;;;5066337;28;20093;-66
2021/01/02 06:43:06;;;;;;;51.20;29.08;;;2.80;96.00;;;;;;5049416;28;20029;-66
2021/01/02 06:45:35;;;;;;;54.30;29.33;;;2.80;96.10;;;;;;5066596;28;20098;-67
2021/01/02 06:48:13;;;;;;;52.63;27.88;;;2.80;96.00;;;;;;5069049;28;20229;-66
2021/01/02 06:50:49;;;;;;;51.15;29.55;;;2.80;96.10;;;;;;5048557;28;20508;-66
2021/01/02 06:53:20;;;;;;;53.50;29.55;;;2.80;96.10;;;;;;5048502;28;20051;-66
2021/01/02 06:55:55;;;;;;;58.15;28.73;;;2.80;96.10;;;;;;5067442;28;20097;-66
2021/01/02 06:58:21;;;;;;;55.10;29.40;;;2.80;96.10;;;;;;5049759;28;20476;-66
2021/01/02 07:00:46;;;;;;;51.90;28.30;;;2.80;96.10;;;;;;5066077;28;20129;-66
2021/01/02 07:03:40;;;;;;;52.22;29.15;;;2.70;96.10;;;;;;5047687;28;20047;-67
2021/01/02 07:06:21;;;;;;;56.17;28.85;;;2.70;96.20;;;;;;5065199;28;20055;-66
2021/01/02 07:08:55;;;;;;;54.20;28.55;;;2.80;96.20;;;;;;5057457;28;20403;-66
2021/01/02 07:11:38;;;;;;;59.75;30.45;;;2.70;96.20;;;;;;5060794;28;20227;-66
2021/01/02 07:14:10;;;;;;;54.15;29.27;;;2.80;96.20;;;;;;5060709;28;20437;-66
2021/01/02 07:16:38;;;;;;;58.92;30.63;;;2.70;96.20;;;;;;5050485;28;20032;-66
2021/01/02 07:19:04;;;;;;;61.47;30.42;;;2.70;96.30;;;;;;5076987;28;20081;-66
2021/01/02 07:21:37;;;;;;;57.25;30.05;;;2.70;96.20;;;;;;5056292;28;20024;-66
2021/01/02 07:24:22;;;;;;;55.63;28.98;;;2.70;96.30;;;;;;5068143;28;20082;-66
2021/01/02 07:26:49;;;;;;;56.20;30.65;;;2.70;96.30;;;;;;5064456;28;20119;-66
2021/01/02 07:29:19;;;;;;;54.55;30.15;;;2.70;96.30;;;;;;5068044;28;20059;-66
2021/01/02 07:31:45;;;;;;;57.10;28.95;;;2.70;96.30;;;;;;5062385;28;20028;-66
2021/01/02 07:34:18;;;;;;;56.47;28.52;;;2.70;96.40;;;;;;5069642;28;20056;-66
2021/01/02 07:36:44;;;;;;;61.25;28.50;;;2.70;96.40;;;;;;5060778;28;20602;-66
2021/01/02 07:39:10;;;;;;;52.97;27.55;;;2.70;96.40;;;;;;5043965;28;20114;-66
2021/01/02 07:41:36;;;;;;;54.72;27.52;;;2.70;96.50;;;;;;5049870;28;20123;-67
2021/01/02 07:44:03;;;;;;;64.32;29.55;;;2.70;96.50;;;;;;5050599;28;20151;-66
2021/01/02 07:46:41;;;;;;;54.97;29.40;;;2.70;96.50;;;;;;5048084;28;20028;-66
2021/01/02 07:49:06;;;;;;;55.88;28.85;;;2.70;96.50;;;;;;5049088;28;20076;-67
2021/01/02 07:51:33;;;;;;;56.15;29.48;;;2.70;96.50;;;;;;5049909;28;20043;-67
2021/01/02 07:53:58;;;;;;;59.97;29.92;;;2.80;96.40;;;;;;5050858;28;20043;-66
2021/01/02 07:56:35;;;;;;;59.75;30.23;;;2.70;96.40;;;;;;5052670;28;20410;-67
2021/01/02 07:59:23;;;;;;;55.25;28.92;;;2.70;96.40;;;;;;5047505;28;20393;-66
2021/01/02 08:01:50;;;;;;;54.30;28.70;;;2.70;96.40;;;;;;5049568;28;20430;-67
2021/01/02 08:04:17;;;;;;;58.25;30.40;;;2.70;96.40;;;;;;5048800;28;20033;-67
2021/01/02 08:06:47;;;;;;;62.50;30.20;;;2.70;96.40;;;;;;5050997;28;20118;-67
2021/01/02 08:09:13;;;;;;;58.45;30.30;;;2.80;96.40;;;;;;5052517;28;20638;-67
2021/01/02 08:11:47;;;;;;;60.33;30.20;;;2.70;96.40;;;;;;5048382;28;20040;-67
2021/01/02 08:14:12;;;;;;;58.33;29.23;;;2.80;96.40;;;;;;5050977;28;22159;-68
2021/01/02 08:16:38;;;;;;;64.22;31.50;;;2.80;96.40;;;;;;5048963;28;20036;-67
2021/01/02 08:19:06;;;;;;;58.90;29.58;;;2.80;96.40;;;;;;5049001;28;20040;-67
2021/01/02 08:21:38;;;;;;;54.42;31.17;;;2.80;96.40;;;;;;5049005;28;20096;-67
2021/01/02 08:24:11;;;;;;;59.83;31.38;;;2.90;96.40;;;;;;5051722;28;20490;-67
2021/01/02 08:26:37;;;;;;;61.35;31.60;;;2.90;96.30;;;;;;5065046;28;20108;-68
2021/01/02 08:29:03;;;;;;;66.10;32.03;;;2.90;96.30;;;;;;5048840;28;20675;-67
2021/01/02 08:31:31;;;;;;;63.97;32.47;;;2.90;96.30;;;;;;5033841;28;20042;-67
2021/01/02 08:33:58;;;;;;;58.30;31.13;;;2.90;96.30;;;;;;5051315;28;20033;-67
2021/01/02 08:36:23;;;;;;;71.47;33.38;;;2.90;96.30;;;;;;5048644;28;20048;-67
2021/01/02 08:38:56;;;;;;;65.53;33.00;;;2.90;96.30;;;;;;5049761;28;22057;-68
2021/01/02 08:41:23;;;;;;;61.30;31.65;;;2.90;96.20;;;;;;5049610;28;20410;-67
2021/01/02 08:43:50;;;;;;;67.22;32.75;;;2.90;96.30;;;;;;5051056;28;20379;-68
2021/01/02 08:46:23;;;;;;;63.33;32.35;;;2.90;96.30;;;;;;5049884;28;20028;-67
2021/01/02 08:48:49;;;;;;;65.95;32.60;;;3.00;96.30;;;;;;5048880;28;20036;-68
2021/01/02 08:51:27;;;;;;;67.38;32.40;;;3.00;96.20;;;;;;5048786;28;20028;-67
2021/01/02 08:53:53;;;;;;;61.90;32.15;;;3.00;96.20;;;;;;5051229;28;20527;-68
2021/01/02 08:56:30;;;;;;;62.13;32.05;;;3.00;96.30;;;;;;5050135;28;20036;-67
2021/01/02 08:58:58;;;;;;;63.55;32.72;;;3.10;96.30;;;;;;5048404;28;20020;-66
2021/01/02 09:01:24;;;;;;;65.25;32.13;;;3.00;96.30;;;;;;5049030;28;20039;-67
2021/01/02 09:03:49;;;;;;;61.92;31.00;;;3.10;96.50;;;;;;5049478;28;20437;-67
2021/01/02 09:06:19;;;;;;;62.75;30.80;;;3.10;96.50;;;;;;5048287;28;20276;-67
2021/01/02 09:08:45;;;;;;;70.13;31.52;;;3.10;96.60;;;;;;5049417;28;20043;-67
2021/01/02 09:11:11;;;;;;;63.67;31.92;;;3.00;96.60;;;;;;5048593;28;20182;-67
2021/01/02 09:13:37;;;;;;;67.50;30.88;;;3.10;96.60;;;;;;5062585;28;20107;-67
2021/01/02 09:16:14;;;;;;;61.83;29.63;;;3.10;96.70;;;;;;5064206;28;20040;-67
2021/01/02 09:18:41;;;;;;;58.58;30.15;;;3.10;96.80;;;;;;5067426;28;20084;-68
2021/01/02 09:21:10;;;;;;;59.38;29.80;;;3.10;96.70;;;;;;5069658;28;20025;-67
2021/01/02 09:23:37;;;;;;;56.78;30.25;;;3.20;96.70;;;;;;5066995;28;20024;-67
2021/01/02 09:26:04;;;;;;;65.38;30.52;;;3.10;96.80;;;;;;5072020;28;20089;-67
2021/01/02 09:28:43;;;;;;;69.07;31.05;;;3.10;96.80;;;;;;5063162;28;20178;-67
2021/01/02 09:31:08;;;;;;;62.35;29.90;;;3.20;96.80;;;;;;5052794;28;20160;-67
2021/01/02 09:33:34;;;;;;;65.53;30.70;;;3.20;96.80;;;;;;5053106;28;21260;-67
2021/01/02 09:36:00;;;;;;;64.97;31.85;;;3.10;96.80;;;;;;5048156;28;20398;-67
2021/01/02 09:38:25;;;;;;;62.53;30.67;;;3.20;96.90;;;;;;5047953;28;20097;-68
2021/01/02 09:40:51;;;;;;;63.22;31.33;;;3.10;96.80;;;;;;5047593;28;20352;-67
2021/01/02 09:43:17;;;;;;;58.78;29.65;;;3.20;96.90;;;;;;5049015;28;20032;-66
2021/01/02 09:45:43;;;;;;;67.55;30.73;;;3.30;97.00;;;;;;5047486;28;20036;-67
2021/01/02 09:48:11;;;;;;;56.25;29.88;;;3.20;96.90;;;;;;5029279;28;20345;-67
2021/01/02 09:50:37;;;;;;;66.50;31.98;;;3.20;96.80;;;;;;5047803;28;20039;-67
2021/01/02 09:53:04;;;;;;;58.92;29.52;;;3.20;96.80;;;;;;5047629;28;20060;-67
2021/01/02 09:55:29;;;;;;;63.78;29.23;;;3.20;96.90;;;;;;5048140;28;20487;-67
2021/01/02 09:57:55;;;;;;;61.42;30.05;;;3.20;96.90;;;;;;5048800;28;20087;-67
2021/01/02 10:00:22;;;;;;;63.97;30.40;;;3.20;96.80;;;;;;5047914;28;20020;-67
2021/01/02 10:02:48;;;;;;;61.00;29.58;;;3.30;96.90;;;;;;5045144;28;20031;-67
2021/01/02 10:05:17;;;;;;;61.15;28.85;;;3.30;96.70;;;;;;5047580;28;20032;-68
2021/01/02 10:07:43;;;;;;;58.75;30.02;;;3.30;96.80;;;;;;5059328;28;20279;-67
2021/01/02 10:10:10;;;;;;;64.97;30.98;;;3.30;96.70;;;;;;5048424;28;20032;-67
2021/01/02 10:12:36;;;;;;;55.40;29.30;;;3.30;96.80;;;;;;5059957;28;20238;-67
2021/01/02 10:15:02;;;;;;;61.58;29.92;;;3.30;96.70;;;;;;5064603;28;20021;-67
2021/01/02 10:17:28;;;;;;;60.60;29.17;;;3.40;96.80;;;;;;5064842;28;20037;-67
2021/01/02 10:19:55;;;;;;;62.33;32.08;;;3.40;96.80;;;;;;5061593;28;20078;-67
2021/01/02 10:22:21;;;;;;;64.18;31.67;;;3.40;96.80;;;;;;5061535;28;20021;-67
2021/01/02 10:24:52;;;;;;;64.53;30.10;;;3.40;96.80;;;;;;5058336;28;20021;-67
2021/01/02 10:27:19;;;;;;;61.03;30.05;;;3.40;96.70;;;;;;5036178;28;20131;-67
2021/01/02 10:29:46;;;;;;;54.75;28.98;;;3.50;96.80;;;;;;5067841;28;20123;-67
2021/01/02 10:32:12;;;;;;;58.45;29.40;;;3.40;96.70;;;;;;5065259;28;20524;-67
2021/01/02 10:34:39;;;;;;;57.92;28.42;;;3.40;96.60;;;;;;5065107;28;20024;-67
2021/01/02 10:37:05;;;;;;;57.28;28.58;;;3.40;96.50;;;;;;5066597;28;20029;-67
2021/01/02 10:39:30;;;;;;;54.85;27.23;;;3.40;96.50;;;;;;5064429;28;20021;-68
2021/01/02 10:41:56;;;;;;;59.00;29.00;;;3.40;96.60;;;;;;5065531;28;20127;-67
2021/01/02 10:44:22;;;;;;;48.67;27.02;;;3.50;96.70;;;;;;5072521;28;20105;-67
2021/01/02 10:46:51;;;;;;;54.92;27.55;;;3.50;96.70;;;;;;5057199;28;20447;-67
2021/01/02 10:49:18;;;;;;;46.90;25.95;;;3.50;96.60;;;;;;5066480;28;20126;-67
2021/01/02 10:51:45;;;;;;;49.50;25.55;;;3.50;96.50;;;;;;5068789;28;20024;-67
2021/01/02 10:54:15;;;;;;;45.35;24.80;;;3.50;96.50;;;;;;5067451;28;20445;-67
2021/01/02 10:56:49;;;;;;;48.63;24.03;;;3.50;96.30;;;;;;5065805;28;20468;-67
2021/01/02 10:59:16;;;;;;;49.20;24.38;;;3.50;96.30;;;;;;5067337;28;20224;-68
2021/01/02 11:01:42;;;;;;;41.63;24.38;;;3.50;96.40;;;;;;5059083;28;20020;-68
2021/01/02 11:04:08;;;;;;;37.05;21.98;;;3.60;96.50;;;;;;5066716;28;20028;-67
2021/01/02 11:06:34;;;;;;;40.88;22.88;;;3.60;96.10;;;;;;5059464;28;20457;-67
2021/01/02 11:09:00;;;;;;;43.55;22.55;;;3.60;96.00;;;;;;5061594;28;20096;-67
2021/01/02 11:11:25;;;;;;;40.13;21.85;;;3.50;96.00;;;;;;5074788;28;20029;-67
2021/01/02 11:13:51;;;;;;;44.53;23.73;;;3.60;96.00;;;;;;5067901;28;20400;-67
2021/01/02 11:16:17;;;;;;;40.60;24.15;;;3.60;95.90;;;;;;5070129;28;20187;-68
2021/01/02 11:18:42;;;;;;;41.67;22.75;;;3.60;96.00;;;;;;5065803;28;20047;-68
2021/01/02 11:21:11;;;;;;;39.80;22.05;;;3.60;95.80;;;;;;5061835;28;20112;-68
2021/01/02 11:23:36;;;;;;;40.60;22.33;;;3.60;95.70;;;;;;5068145;28;20409;-67
2021/01/02 11:26:08;;;;;;;40.08;22.80;;;3.70;95.80;;;;;;5064707;28;20060;-66
2021/01/02 11:28:33;;;;;;;;;;;3.60;95.70;;;;;;5046121;28;20051;-66
2021/01/02 11:30:59;;;;;;;36.85;21.00;;;3.60;95.30;;;;;;5064995;28;19909;-68
2021/01/02 11:33:24;;;;;;;36.50;20.02;;;3.60;95.20;;;;;;5065850;28;20465;-68
2021/01/02 11:35:50;;;;;;;43.55;22.58;;;3.60;95.10;;;;;;5068595;28;20043;-67
2021/01/02 11:38:15;;;;;;;36.83;21.73;;;3.60;95.20;;;;;;5066672;28;20024;-67
2021/01/02 11:40:41;;;;;;;39.90;21.65;;;3.60;95.10;;;;;;5073794;28;20029;-67
2021/01/02 11:43:07;;;;;;;39.65;22.35;;;3.60;95.10;;;;;;5063701;28;20021;-68
2021/01/02 11:45:32;;;;;;;39.78;22.08;;;3.60;95.30;;;;;;5062734;28;20174;-68
2021/01/02 11:47:58;;;;;;;36.72;21.05;;;3.60;95.10;;;;;;5063315;28;20127;-67
2021/01/02 11:50:23;;;;;;;37.35;20.05;;;3.60;95.10;;;;;;5063325;28;20440;-67
2021/01/02 11:52:49;;;;;;;35.67;20.48;;;3.60;95.10;;;;;;5065797;28;20059;-68
2021/01/02 11:55:15;;;;;;;36.65;20.40;;;3.60;94.80;;;;;;5065669;28;20287;-67
2021/01/02 11:57:40;;;;;;;39.33;21.35;;;3.70;94.70;;;;;;5063744;28;20048;-68
2021/01/02 12:00:07;;;;;;;39.00;22.48;;;3.70;94.70;;;;;;5065244;28;20043;-68
2021/01/02 12:02:34;;;;;;;41.25;22.15;;;3.80;94.90;;;;;;5067874;28;20080;-67
2021/01/02 12:05:00;;;;;;;37.40;20.30;;;3.80;94.90;;;;;;5065055;28;20034;-67
2021/01/02 12:07:25;;;;;;;35.67;19.95;;;3.70;94.40;;;;;;5067141;28;20508;-67
2021/01/02 12:09:51;;;;;;;36.00;20.75;;;3.80;94.50;;;;;;5065509;28;20059;-67
2021/01/02 12:12:17;;;;;;;33.80;20.63;;;3.80;94.50;;;;;;5067388;28;20504;-67
2021/01/02 12:14:42;;;;;;;40.67;20.75;;;3.80;94.50;;;;;;5066327;28;20029;-67
2021/01/02 12:17:10;;;;;;;34.95;21.15;;;3.80;94.70;;;;;;5065824;28;20060;-67
2021/01/02 12:19:36;;;;;;;33.70;20.23;;;3.80;94.60;;;;;;5063497;28;20038;-67
2021/01/02 12:22:05;;;;;;;38.95;21.85;;;3.80;94.50;;;;;;5062139;28;20028;-67
2021/01/02 12:24:31;;;;;;;36.08;21.23;;;3.80;94.60;;;;;;5067553;28;20111;-67
2021/01/02 12:27:00;;;;;;;37.95;21.23;;;3.80;94.40;;;;;;5068388;28;20034;-67
2021/01/02 12:29:28;;;;;;;38.58;23.52;;;3.80;94.30;;;;;;5045534;28;20167;-68
2021/01/02 12:31:57;;;;;;;42.13;23.25;;;3.80;94.40;;;;;;5066768;28;20048;-67
2021/01/02 12:34:34;;;;;;;38.67;20.80;;;3.80;94.40;;;;;;5064161;28;20024;-67
2021/01/02 12:37:02;;;;;;;40.95;22.08;;;3.80;94.50;;;;;;5066317;28;20031;-67
2021/01/02 12:39:30;;;;;;;36.70;21.58;;;3.70;94.40;;;;;;5064149;28;20046;-67
2021/01/02 12:41:58;;;;;;;37.90;22.05;;;3.80;94.60;;;;;;5056192;28;20032;-67
2021/01/02 12:44:24;;;;;;;37.70;22.92;;;3.80;94.70;;;;;;5062892;28;20507;-68
2021/01/02 12:46:55;;;;;;;43.00;23.48;;;3.90;94.50;;;;;;5064791;28;20048;-67
2021/01/02 12:49:25;;;;;;;40.13;23.35;;;3.80;94.60;;;;;;5064350;28;20144;-67